createdAt,value
2023-04-19T00:00:00.146Z,85.02
2023-04-19T00:01:00.174Z,85.02
2023-04-19T00:02:00.210Z,85.23
2023-04-19T00:03:00.130Z,85.23
2023-04-19T00:04:00.162Z,84.81
2023-04-19T00:04:59.971Z,84.92
2023-04-19T00:05:59.914Z,84.92
2023-04-19T00:06:59.925Z,83.78
2023-04-19T00:07:59.825Z,83.78
2023-04-19T00:08:59.788Z,83.85
2023-04-19T00:09:59.762Z,83.54
2023-04-19T00:10:59.734Z,83.78
2023-04-19T00:11:59.699Z,83.17
2023-04-19T00:12:59.717Z,83.33
2023-04-19T00:13:59.602Z,83.13
2023-04-19T00:14:59.583Z,82.61
2023-04-19T00:15:59.564Z,82.61
2023-04-19T00:16:59.593Z,82.61
2023-04-19T00:17:59.596Z,82.71
2023-04-19T00:18:59.440Z,81.79
2023-04-19T00:19:59.409Z,81.58
2023-04-19T00:20:59.375Z,81.58
2023-04-19T00:21:59.331Z,81.58
2023-04-19T00:22:59.433Z,81.54
2023-04-19T00:23:59.271Z,81.03
2023-04-19T00:24:59.217Z,80.86
2023-04-19T00:25:59.195Z,80.30
2023-04-19T00:26:59.164Z,80.41
2023-04-19T00:27:59.175Z,79.58
2023-04-19T00:28:59.071Z,79.17
2023-04-19T00:29:59.049Z,79.17
2023-04-19T00:30:59.016Z,79.38
2023-04-19T00:31:58.970Z,78.14
2023-04-19T00:32:58.957Z,78.76
2023-04-19T00:33:58.957Z,79.58
2023-04-19T00:34:58.946Z,78.14
2023-04-19T00:35:58.833Z,78.45
2023-04-19T00:36:58.787Z,78.45
2023-04-19T00:37:58.759Z,77.48
2023-04-19T00:38:58.720Z,77.48
2023-04-19T00:39:58.761Z,77.80
2023-04-19T00:40:58.676Z,77.38
2023-04-19T00:41:58.621Z,76.97
2023-04-19T00:42:58.578Z,77.08
2023-04-19T00:43:58.559Z,76.87
2023-04-19T00:44:58.573Z,76.97
2023-04-19T00:45:58.501Z,76.46
2023-04-19T00:46:58.453Z,76.66
2023-04-19T00:47:58.427Z,75.63
2023-04-19T00:48:58.356Z,76.25
2023-04-19T00:49:58.390Z,76.15
2023-04-19T00:50:58.368Z,76.46
2023-04-19T00:51:58.260Z,75.22
2023-04-19T00:52:58.242Z,75.12
2023-04-19T00:53:58.189Z,74.91
2023-04-19T00:54:58.147Z,74.60
2023-04-19T00:55:58.192Z,74.80
2023-04-19T00:56:58.078Z,74.91
2023-04-19T00:57:58.033Z,75.01
2023-04-19T00:58:58.004Z,74.29
2023-04-19T00:59:57.981Z,73.43
2023-04-19T01:00:57.942Z,73.33
2023-04-19T01:01:58.027Z,73.68
2023-04-19T01:02:57.974Z,73.47
2023-04-19T01:03:57.884Z,73.33
2023-04-19T01:04:57.809Z,73.36
2023-04-19T01:05:57.781Z,73.16
2023-04-19T01:06:57.805Z,72.85
2023-04-19T01:07:57.680Z,71.69
2023-04-19T01:08:57.655Z,71.48
2023-04-19T01:09:57.618Z,71.58
2023-04-19T01:10:57.585Z,72.20
2023-04-19T01:11:57.619Z,72.33
2023-04-19T01:12:57.502Z,71.69
2023-04-19T01:13:57.468Z,72.44
2023-04-19T01:14:57.442Z,72.03
2023-04-19T01:15:57.551Z,71.61
2023-04-19T01:16:57.368Z,71.37
2023-04-19T01:17:57.412Z,71.69
2023-04-19T01:18:57.318Z,70.79
2023-04-19T01:19:57.248Z,71.06
2023-04-19T01:20:57.221Z,71.17
2023-04-19T01:21:57.177Z,71.27
2023-04-19T01:22:57.154Z,71.58
2023-04-19T01:23:57.162Z,71.58
2023-04-19T01:24:57.078Z,71.10
2023-04-19T01:25:57.030Z,70.48
2023-04-19T01:26:57.010Z,71.00
2023-04-19T01:27:56.973Z,70.45
2023-04-19T01:28:57.002Z,70.45
2023-04-19T01:29:56.916Z,69.96
2023-04-19T01:30:56.905Z,69.86
2023-04-19T01:31:56.857Z,70.45
2023-04-19T01:32:56.844Z,69.76
2023-04-19T01:33:56.769Z,69.76
2023-04-19T01:34:56.820Z,69.01
2023-04-19T01:35:56.690Z,69.21
2023-04-19T01:36:56.661Z,69.62
2023-04-19T01:37:56.690Z,69.35
2023-04-19T01:38:56.602Z,69.24
2023-04-19T01:39:56.628Z,69.31
2023-04-19T01:40:56.511Z,69.62
2023-04-19T01:41:56.476Z,69.45
2023-04-19T01:42:56.459Z,69.35
2023-04-19T01:43:56.394Z,69.65
2023-04-19T01:44:56.375Z,69.45
2023-04-19T01:45:56.395Z,69.76
2023-04-19T01:46:56.312Z,69.35
2023-04-19T01:47:56.284Z,69.65
2023-04-19T01:48:56.225Z,69.69
2023-04-19T01:49:56.182Z,70.20
2023-04-19T01:50:56.144Z,70.41
2023-04-19T01:51:56.536Z,70.31
2023-04-19T01:52:56.101Z,70.72
2023-04-19T01:53:56.040Z,71.26
2023-04-19T01:54:56.008Z,71.06
2023-04-19T01:55:55.987Z,71.68
2023-04-19T01:56:56.025Z,71.37
2023-04-19T01:57:55.918Z,71.51
2023-04-19T01:58:55.860Z,71.61
2023-04-19T01:59:55.825Z,71.61
2023-04-19T02:00:55.830Z,71.71
2023-04-19T02:01:55.815Z,71.51
2023-04-19T02:02:55.901Z,72.02
2023-04-19T02:03:55.880Z,72.23
2023-04-19T02:04:55.644Z,72.67
2023-04-19T02:05:55.617Z,73.09
2023-04-19T02:06:55.582Z,73.19
2023-04-19T02:07:55.610Z,72.99
2023-04-19T02:08:55.518Z,73.60
2023-04-19T02:09:55.466Z,73.39
2023-04-19T02:10:55.516Z,73.09
2023-04-19T02:11:55.439Z,73.39
2023-04-19T02:12:55.414Z,73.71
2023-04-19T02:13:55.364Z,74.12
2023-04-19T02:14:55.308Z,74.88
2023-04-19T02:15:55.356Z,74.36
2023-04-19T02:16:55.284Z,74.98
2023-04-19T02:17:55.213Z,74.88
2023-04-19T02:18:55.144Z,74.88
2023-04-19T02:19:55.107Z,75.19
2023-04-19T02:20:55.123Z,75.39
2023-04-19T02:21:55.024Z,75.63
2023-04-19T02:22:55.002Z,75.84
2023-04-19T02:23:54.960Z,76.77
2023-04-19T02:24:54.985Z,76.56
2023-04-19T02:25:54.887Z,75.74
2023-04-19T02:26:54.876Z,75.84
2023-04-19T02:27:54.824Z,76.98
2023-04-19T02:28:54.799Z,76.77
2023-04-19T02:29:54.800Z,76.87
2023-04-19T02:30:54.702Z,76.91
2023-04-19T02:31:54.724Z,76.81
2023-04-19T02:32:54.674Z,77.22
2023-04-19T02:33:54.593Z,77.08
2023-04-19T02:34:54.579Z,77.22
2023-04-19T02:35:54.578Z,77.33
2023-04-19T02:36:54.496Z,77.53
2023-04-19T02:37:54.468Z,77.84
2023-04-19T02:38:54.419Z,77.74
2023-04-19T02:39:54.382Z,77.74
2023-04-19T02:40:54.424Z,77.74
2023-04-19T02:41:54.360Z,78.60
2023-04-19T02:42:54.259Z,78.70
2023-04-19T02:43:54.247Z,78.50
2023-04-19T02:44:54.183Z,78.19
2023-04-19T02:45:54.179Z,78.91
2023-04-19T02:46:54.178Z,78.81
2023-04-19T02:47:54.130Z,79.02
2023-04-19T02:48:54.044Z,79.16
2023-04-19T02:49:54.021Z,79.47
2023-04-19T02:50:53.972Z,79.26
2023-04-19T02:51:53.925Z,79.05
2023-04-19T02:52:53.987Z,79.02
2023-04-19T02:53:53.882Z,79.47
2023-04-19T02:54:53.836Z,79.36
2023-04-19T02:55:53.790Z,79.57
2023-04-19T02:56:53.779Z,79.47
2023-04-19T02:57:53.801Z,79.67
2023-04-19T02:58:53.699Z,79.77
2023-04-19T02:59:53.663Z,80.08
2023-04-19T03:00:53.618Z,79.98
2023-04-19T03:01:53.562Z,80.08
2023-04-19T03:02:53.723Z,79.88
2023-04-19T03:03:54.098Z,79.77
2023-04-19T03:04:53.460Z,79.77
2023-04-19T03:05:53.497Z,80.60
2023-04-19T03:06:53.410Z,80.50
2023-04-19T03:07:53.351Z,80.95
2023-04-19T03:08:53.311Z,80.95
2023-04-19T03:09:53.277Z,81.37
2023-04-19T03:10:53.343Z,81.26
2023-04-19T03:11:53.325Z,81.37
2023-04-19T03:12:53.169Z,81.37
2023-04-19T03:13:53.117Z,81.57
2023-04-19T03:14:53.113Z,81.78
2023-04-19T03:15:53.183Z,81.88
2023-04-19T03:16:53.017Z,81.78
2023-04-19T03:17:53.051Z,81.88
2023-04-19T03:18:52.937Z,81.88
2023-04-19T03:19:52.915Z,82.60
2023-04-19T03:20:52.880Z,82.75
2023-04-19T03:21:52.841Z,82.65
2023-04-19T03:22:52.812Z,82.86
2023-04-19T03:23:52.839Z,83.68
2023-04-19T03:24:52.713Z,83.99
2023-04-19T03:25:52.709Z,83.93
2023-04-19T03:26:52.652Z,83.51
2023-04-19T03:27:52.609Z,83.83
2023-04-19T03:28:52.569Z,84.65
2023-04-19T03:29:52.587Z,84.44
2023-04-19T03:30:52.523Z,85.06
2023-04-19T03:31:52.448Z,85.69
2023-04-19T03:32:52.431Z,85.79
2023-04-19T03:33:52.382Z,85.48
2023-04-19T03:34:52.334Z,85.52
2023-04-19T03:35:52.367Z,85.52
2023-04-19T03:36:52.305Z,85.83
2023-04-19T03:37:52.228Z,86.04
2023-04-19T03:38:52.224Z,86.15
2023-04-19T03:39:52.148Z,86.35
2023-04-19T03:40:52.135Z,86.25
2023-04-19T03:41:52.152Z,86.35
2023-04-19T03:42:52.052Z,86.49
2023-04-19T03:43:52.112Z,87.28
2023-04-19T03:44:51.963Z,87.01
2023-04-19T03:45:51.983Z,86.80
2023-04-19T03:46:51.906Z,87.22
2023-04-19T03:47:51.908Z,87.32
2023-04-19T03:48:51.805Z,87.53
2023-04-19T03:49:51.868Z,87.63
2023-04-19T03:50:51.742Z,87.63
2023-04-19T03:51:51.706Z,87.63
2023-04-19T03:52:51.670Z,87.22
2023-04-19T03:53:51.630Z,87.95
2023-04-19T03:54:51.596Z,88.26
2023-04-19T03:55:51.608Z,88.15
2023-04-19T03:56:51.516Z,87.88
2023-04-19T03:57:51.491Z,87.57
2023-04-19T03:58:51.437Z,88.30
2023-04-19T03:59:51.396Z,88.15
2023-04-19T04:00:51.396Z,88.05
2023-04-19T04:01:51.433Z,87.63
2023-04-19T04:02:51.447Z,88.51
2023-04-19T04:03:51.332Z,88.67
2023-04-19T04:04:51.290Z,88.67
2023-04-19T04:05:51.180Z,88.61
2023-04-19T04:06:51.136Z,88.67
2023-04-19T04:07:51.162Z,88.46
2023-04-19T04:08:51.058Z,88.82
2023-04-19T04:09:51.042Z,88.92
2023-04-19T04:10:51.039Z,89.09
2023-04-19T04:11:50.952Z,88.98
2023-04-19T04:12:50.920Z,89.03
2023-04-19T04:13:50.960Z,89.03
2023-04-19T04:14:50.846Z,89.03
2023-04-19T04:15:50.938Z,89.44
2023-04-19T04:16:50.818Z,89.34
2023-04-19T04:17:50.752Z,88.82
2023-04-19T04:18:50.766Z,89.34
2023-04-19T04:19:50.656Z,89.65
2023-04-19T04:20:50.635Z,89.75
2023-04-19T04:21:50.588Z,89.40
2023-04-19T04:22:50.565Z,89.04
2023-04-19T04:23:50.505Z,88.53
2023-04-19T04:24:50.543Z,87.87
2023-04-19T04:25:50.432Z,87.55
2023-04-19T04:26:50.442Z,86.83
2023-04-19T04:27:50.358Z,87.20
2023-04-19T04:28:50.326Z,85.99
2023-04-19T04:29:50.280Z,84.84
2023-04-19T04:30:50.296Z,84.08
2023-04-19T04:31:50.441Z,83.46
2023-04-19T04:32:50.219Z,83.11
2023-04-19T04:33:50.199Z,84.19
2023-04-19T04:34:50.205Z,83.94
2023-04-19T04:40:29.396Z,85.05
2023-04-19T04:41:26.192Z,85.57
2023-04-19T04:42:26.122Z,84.66
2023-04-19T04:43:26.080Z,83.49
2023-04-19T04:44:26.251Z,82.73
2023-04-19T04:45:26.003Z,81.86
2023-04-19T04:46:26.115Z,80.79
2023-04-19T04:47:25.977Z,79.83
2023-04-19T04:48:25.895Z,79.52
2023-04-19T04:49:25.857Z,79.58
2023-04-19T04:50:25.825Z,79.07
2023-04-19T04:51:25.784Z,80.00
2023-04-19T04:52:25.798Z,82.50
2023-04-19T04:53:25.730Z,85.16
2023-04-19T04:54:25.685Z,85.71
2023-04-19T04:55:25.647Z,86.99
2023-04-19T04:56:25.645Z,87.72
2023-04-19T04:57:25.572Z,88.07
2023-04-19T04:58:25.584Z,88.59
2023-04-19T04:59:25.492Z,88.59
2023-04-19T05:00:25.468Z,89.21
2023-04-19T05:01:25.490Z,89.87
2023-04-19T05:02:25.592Z,89.67
2023-04-19T05:03:25.421Z,90.08
2023-04-19T05:04:25.383Z,90.19
2023-04-19T05:05:25.287Z,90.39
2023-04-19T05:06:25.240Z,90.50
2023-04-19T05:07:25.201Z,90.97
2023-04-19T05:08:25.164Z,90.77
2023-04-19T05:09:25.141Z,90.50
2023-04-19T05:10:25.146Z,90.35
2023-04-19T05:11:25.057Z,90.25
2023-04-19T05:12:25.014Z,90.66
2023-04-19T05:13:24.988Z,90.87
2023-04-19T05:14:24.944Z,90.56
2023-04-19T05:15:24.913Z,91.53
2023-04-19T05:16:24.986Z,91.22
2023-04-19T05:17:24.857Z,91.08
2023-04-19T05:18:24.840Z,91.08
2023-04-19T05:19:24.779Z,91.28
2023-04-19T05:20:24.727Z,91.18
2023-04-19T05:21:24.681Z,91.08
2023-04-19T05:22:24.706Z,91.08
2023-04-19T05:23:24.607Z,90.87
2023-04-19T05:24:24.582Z,91.08
2023-04-19T05:25:24.589Z,91.39
2023-04-19T05:26:24.508Z,91.24
2023-04-19T05:27:24.472Z,91.35
2023-04-19T05:28:24.490Z,90.93
2023-04-19T05:29:24.406Z,90.66
2023-04-19T05:30:24.357Z,91.03
2023-04-19T05:31:24.318Z,90.83
2023-04-19T05:32:24.302Z,90.83
2023-04-19T05:33:24.244Z,91.14
2023-04-19T05:34:24.265Z,91.14
2023-04-19T05:35:24.178Z,90.83
2023-04-19T05:36:24.141Z,90.93
2023-04-19T05:37:24.100Z,90.68
2023-04-19T05:38:24.065Z,90.93
2023-04-19T05:39:24.102Z,91.35
2023-04-19T05:40:24.004Z,91.30
2023-04-19T05:41:23.957Z,91.41
2023-04-19T05:42:23.917Z,90.47
2023-04-19T05:43:23.899Z,90.89
2023-04-19T05:44:23.851Z,91.41
2023-04-19T05:45:23.883Z,90.95
2023-04-19T05:46:23.803Z,90.74
2023-04-19T05:47:23.774Z,90.53
2023-04-19T05:48:23.705Z,90.37
2023-04-19T05:49:23.670Z,90.53
2023-04-19T05:50:23.640Z,90.53
2023-04-19T05:51:23.635Z,89.92
2023-04-19T05:52:23.544Z,89.81
2023-04-19T05:53:23.508Z,89.36
2023-04-19T05:54:23.477Z,89.98
2023-04-19T05:55:23.446Z,90.19
2023-04-19T05:56:23.440Z,89.98
2023-04-19T05:57:23.426Z,90.08
2023-04-19T05:58:23.407Z,89.46
2023-04-19T05:59:23.296Z,89.52
2023-04-19T06:00:23.259Z,89.42
2023-04-19T06:01:23.236Z,89.25
2023-04-19T06:02:23.382Z,89.22
2023-04-19T06:03:23.329Z,89.11
2023-04-19T06:04:23.841Z,89.11
2023-04-19T06:05:23.308Z,88.70
2023-04-19T06:06:23.130Z,88.65
2023-04-19T06:07:31.808Z,88.24
2023-04-19T06:08:23.028Z,87.00
2023-04-19T06:09:22.945Z,87.83
2023-04-19T06:10:22.888Z,87.52
2023-04-19T06:11:28.773Z,86.96
2023-04-19T06:12:22.820Z,86.65
2023-04-19T06:13:22.912Z,86.76
2023-04-19T06:14:22.798Z,86.86
2023-04-19T06:15:22.716Z,87.07
2023-04-19T06:16:22.681Z,85.68
2023-04-19T06:17:22.675Z,85.89
2023-04-19T06:18:22.600Z,86.10
2023-04-19T06:19:22.633Z,85.99
2023-04-19T06:20:22.541Z,85.78
2023-04-19T06:21:22.504Z,85.58
2023-04-19T06:22:22.449Z,84.86
2023-04-19T06:23:22.419Z,85.37
2023-04-19T06:24:22.374Z,84.92
2023-04-19T06:25:22.569Z,84.72
2023-04-19T06:26:22.312Z,84.72
2023-04-19T06:27:22.276Z,84.20
2023-04-19T06:28:22.241Z,83.68
2023-04-19T06:29:22.236Z,84.09
2023-04-19T06:30:22.164Z,84.09
2023-04-19T06:31:22.214Z,83.89
2023-04-19T06:32:22.203Z,83.17
2023-04-19T06:33:22.064Z,83.58
2023-04-19T06:34:22.015Z,83.37
2023-04-19T06:35:21.980Z,83.03
2023-04-19T06:36:21.999Z,83.54
2023-04-19T06:37:21.906Z,83.29
2023-04-19T06:38:21.873Z,83.09
2023-04-19T06:39:21.837Z,81.65
2023-04-19T06:40:21.828Z,81.85
2023-04-19T06:41:21.767Z,82.16
2023-04-19T06:42:21.795Z,82.16
2023-04-19T06:43:21.698Z,82.16
2023-04-19T06:44:21.656Z,81.81
2023-04-19T06:45:21.622Z,81.61
2023-04-19T06:46:21.668Z,81.92
2023-04-19T06:47:21.600Z,80.79
2023-04-19T06:48:21.572Z,80.79
2023-04-19T06:49:21.472Z,80.99
2023-04-19T06:50:21.444Z,80.23
2023-04-19T06:51:21.405Z,80.16
2023-04-19T06:52:21.374Z,80.85
2023-04-19T06:53:21.387Z,80.02
2023-04-19T06:54:21.315Z,79.41
2023-04-19T06:55:21.256Z,80.33
2023-04-19T06:56:21.221Z,80.33
2023-04-19T06:57:21.196Z,80.51
2023-04-19T06:58:21.205Z,79.27
2023-04-19T06:59:21.112Z,78.14
2023-04-19T07:00:21.099Z,78.65
2023-04-19T07:01:21.128Z,78.34
2023-04-19T07:02:21.167Z,78.65
2023-04-19T07:03:21.069Z,78.34
2023-04-19T07:04:21.530Z,78.20
2023-04-19T07:05:20.904Z,78.14
2023-04-19T07:06:20.855Z,76.76
2023-04-19T07:07:20.870Z,77.31
2023-04-19T07:08:20.792Z,77.72
2023-04-19T07:09:20.762Z,76.76
2023-04-19T07:10:20.819Z,76.79
2023-04-19T07:11:22.375Z,76.97
2023-04-19T07:12:20.661Z,76.76
2023-04-19T07:13:20.610Z,77.17
2023-04-19T07:14:20.580Z,76.73
2023-04-19T07:15:20.537Z,76.42
2023-04-19T07:16:20.658Z,76.21
2023-04-19T07:17:20.490Z,76.21
2023-04-19T07:18:20.444Z,76.48
2023-04-19T07:19:20.438Z,75.76
2023-04-19T07:20:20.357Z,75.35
2023-04-19T07:21:20.330Z,75.56
2023-04-19T07:22:20.354Z,75.70
2023-04-19T07:23:20.266Z,75.80
2023-04-19T07:24:20.218Z,75.39
2023-04-19T07:25:20.197Z,76.18
2023-04-19T07:26:20.144Z,74.33
2023-04-19T07:27:20.142Z,74.02
2023-04-19T07:28:20.147Z,74.02
2023-04-19T07:29:20.137Z,74.22
2023-04-19T07:30:20.003Z,74.29
2023-04-19T07:31:19.978Z,73.91
2023-04-19T07:32:20.047Z,73.78
2023-04-19T07:33:19.913Z,74.77
2023-04-19T07:34:20.068Z,73.33
2023-04-19T07:35:19.828Z,71.79
2023-04-19T07:36:19.794Z,73.44
2023-04-19T07:37:19.760Z,72.51
2023-04-19T07:38:19.736Z,72.06
2023-04-19T07:39:19.741Z,71.86
2023-04-19T07:40:19.663Z,71.97
2023-04-19T07:41:19.635Z,70.53
2023-04-19T07:42:19.625Z,71.11
2023-04-19T07:43:19.569Z,71.21
2023-04-19T07:44:19.715Z,70.32
2023-04-19T07:45:19.497Z,69.60
2023-04-19T07:46:19.460Z,70.12
2023-04-19T07:47:19.530Z,70.80
2023-04-19T07:48:19.382Z,70.70
2023-04-19T07:49:19.341Z,70.08
2023-04-19T07:50:20.422Z,69.47
2023-04-19T07:51:20.248Z,69.47
2023-04-19T07:52:19.313Z,69.78
2023-04-19T07:53:19.201Z,69.67
2023-04-19T07:54:19.162Z,69.84
2023-04-19T07:55:19.157Z,69.33
2023-04-19T07:56:19.096Z,68.21
2023-04-19T07:57:19.122Z,67.90
2023-04-19T07:58:19.028Z,67.52
2023-04-19T07:59:18.996Z,67.72
2023-04-19T08:00:18.978Z,68.51
2023-04-19T08:01:19.104Z,68.21
2023-04-19T08:02:19.046Z,67.49
2023-04-19T08:03:19.029Z,67.38
2023-04-19T08:04:19.292Z,66.43
2023-04-19T08:05:18.878Z,67.76
2023-04-19T08:06:18.747Z,67.76
2023-04-19T08:07:18.734Z,66.84
2023-04-19T08:08:18.727Z,67.14
2023-04-19T08:09:18.670Z,67.46
2023-04-19T08:10:18.602Z,67.11
2023-04-19T08:11:18.574Z,66.84
2023-04-19T08:12:32.965Z,66.50
2023-04-19T08:13:18.507Z,67.02
2023-04-19T08:14:32.381Z,66.37
2023-04-19T08:17:23.296Z,65.99
2023-04-19T08:18:18.372Z,66.81
2023-04-19T08:19:18.405Z,66.19
2023-04-19T08:20:18.262Z,65.37
2023-04-19T08:21:18.554Z,65.27
2023-04-19T08:22:18.202Z,65.48
2023-04-19T08:23:24.404Z,65.75
2023-04-19T08:24:18.369Z,65.04
2023-04-19T08:25:18.144Z,65.04
2023-04-19T08:26:18.054Z,65.42
2023-04-19T08:27:18.086Z,63.47
2023-04-19T08:28:17.996Z,62.45
2023-04-19T08:29:18.163Z,63.47
2023-04-19T08:30:17.929Z,63.37
2023-04-19T08:31:18.017Z,62.45
2023-04-19T08:32:17.894Z,62.04
2023-04-19T08:33:17.836Z,62.24
2023-04-19T08:34:17.842Z,61.63
2023-04-19T08:35:17.772Z,62.35
2023-04-19T08:36:22.215Z,62.55
2023-04-19T08:37:17.680Z,61.93
2023-04-19T08:38:17.652Z,62.14
2023-04-19T08:39:29.225Z,62.62
2023-04-19T08:40:17.627Z,61.93
2023-04-19T08:41:17.556Z,61.83
2023-04-19T08:42:28.804Z,61.93
2023-04-19T08:43:17.483Z,62.52
2023-04-19T08:44:25.351Z,62.73
2023-04-19T08:45:27.808Z,61.91
2023-04-19T08:46:17.414Z,61.91
2023-04-19T08:47:27.025Z,61.09
2023-04-19T08:48:17.350Z,61.77
2023-04-19T08:49:17.706Z,60.96
2023-04-19T08:50:32.645Z,60.96
2023-04-19T08:51:17.214Z,61.06
2023-04-19T08:52:17.166Z,60.42
2023-04-19T08:53:24.634Z,61.13
2023-04-19T08:54:17.111Z,60.31
2023-04-19T08:55:17.138Z,60.24
2023-04-19T08:57:16.995Z,59.70
2023-04-19T08:58:28.476Z,59.60
2023-04-19T08:59:18.917Z,59.73
2023-04-19T09:00:16.893Z,59.60
2023-04-19T09:01:30.482Z,59.80
2023-04-19T09:02:16.900Z,59.12
2023-04-19T09:03:17.034Z,59.83
2023-04-19T09:04:27.180Z,60.35
2023-04-19T09:05:16.803Z,60.72
2023-04-19T09:06:16.961Z,60.42
2023-04-19T09:07:16.701Z,60.31
2023-04-19T09:08:16.651Z,60.49
2023-04-19T09:09:33.179Z,59.75
2023-04-19T09:10:16.568Z,60.46
2023-04-19T09:11:16.518Z,59.92
2023-04-19T09:12:16.502Z,58.47
2023-04-19T09:13:17.198Z,58.67
2023-04-19T09:14:16.427Z,58.26
2023-04-19T09:15:16.379Z,58.87
2023-04-19T09:16:25.495Z,58.44
2023-04-19T09:17:16.334Z,58.47
2023-04-19T09:18:16.276Z,57.52
2023-04-19T09:19:24.095Z,56.71
2023-04-19T09:20:16.266Z,57.19
2023-04-19T09:21:16.187Z,56.58
2023-04-19T09:22:16.188Z,55.97
2023-04-19T09:23:16.137Z,56.37
2023-04-19T09:24:16.324Z,56.07
2023-04-19T09:25:37.864Z,55.89
2023-04-19T09:26:23.483Z,55.69
2023-04-19T09:27:15.978Z,55.99
2023-04-19T09:28:15.972Z,56.02
2023-04-19T09:29:16.324Z,56.30
2023-04-19T09:30:27.840Z,56.30
2023-04-19T09:32:15.913Z,56.35
2023-04-19T09:33:15.977Z,54.92
2023-04-19T09:34:15.767Z,55.43
2023-04-19T09:35:15.720Z,55.33
2023-04-19T09:36:15.699Z,55.43
2023-04-19T09:37:29.633Z,55.46
2023-04-19T09:38:15.629Z,56.07
2023-04-19T09:39:16.622Z,55.94
2023-04-19T09:40:15.558Z,56.15
2023-04-19T09:41:15.534Z,55.87
2023-04-19T09:42:18.104Z,55.56
2023-04-19T09:43:45.307Z,56.27
2023-04-19T09:46:15.385Z,54.67
2023-04-19T09:47:15.334Z,56.50
2023-04-19T09:48:15.310Z,56.60
2023-04-19T09:49:23.169Z,56.81
2023-04-19T09:50:23.809Z,55.38
2023-04-19T09:51:15.425Z,55.91
2023-04-19T09:52:15.203Z,55.82
2023-04-19T09:53:15.143Z,56.43
2023-04-19T09:54:15.117Z,56.53
2023-04-19T09:55:26.794Z,56.60
2023-04-19T09:56:15.051Z,56.37
2023-04-19T09:57:15.023Z,56.27
2023-04-19T09:58:15.046Z,56.76
2023-04-19T09:59:20.839Z,55.84
2023-04-19T10:00:15.077Z,55.91
2023-04-19T10:01:16.549Z,54.39
2023-04-19T10:02:14.927Z,53.98
2023-04-19T10:03:14.876Z,54.11
2023-04-19T10:04:26.256Z,53.90
2023-04-19T10:05:20.725Z,55.02
2023-04-19T10:06:31.738Z,54.61
2023-04-19T10:08:14.733Z,54.61
2023-04-19T10:09:14.937Z,54.39
2023-04-19T10:10:19.978Z,53.70
2023-04-19T10:11:14.564Z,53.29
2023-04-19T10:12:38.548Z,54.24
2023-04-19T10:13:19.711Z,55.71
2023-04-19T10:14:14.483Z,54.28
2023-04-19T10:15:14.462Z,54.26
2023-04-19T10:16:19.555Z,53.37
2023-04-19T10:17:14.499Z,52.55
2023-04-19T10:18:14.337Z,52.48
2023-04-19T10:19:14.520Z,52.70
2023-04-19T10:20:14.293Z,52.91
2023-04-19T10:21:14.258Z,53.52
2023-04-19T10:22:14.264Z,53.80
2023-04-19T10:23:14.172Z,53.39
2023-04-19T10:24:14.153Z,53.50
2023-04-19T10:25:14.119Z,52.68
2023-04-19T10:26:14.075Z,53.22
2023-04-19T10:27:14.070Z,53.31
2023-04-19T10:28:14.210Z,53.59
2023-04-19T10:29:14.134Z,52.27
2023-04-19T10:30:13.954Z,53.31
2023-04-19T10:31:13.980Z,52.60
2023-04-19T10:32:13.920Z,53.83
2023-04-19T10:33:13.858Z,54.11
2023-04-19T10:34:13.873Z,53.39
2023-04-19T10:35:14.678Z,53.90
2023-04-19T10:36:13.756Z,54.28
2023-04-19T10:37:13.736Z,54.08
2023-04-19T10:38:13.698Z,52.45
2023-04-19T10:39:13.787Z,51.94
2023-04-19T10:40:13.671Z,52.48
2023-04-19T10:41:16.440Z,52.37
2023-04-19T10:42:13.598Z,52.60
2023-04-19T10:43:13.544Z,52.48
2023-04-19T10:44:13.525Z,52.58
2023-04-19T10:45:13.471Z,52.58
2023-04-19T10:46:13.582Z,53.39
2023-04-19T10:47:14.651Z,52.76
2023-04-19T10:48:13.390Z,52.83
2023-04-19T10:49:13.529Z,52.66
2023-04-19T10:50:13.351Z,53.85
2023-04-19T10:51:14.320Z,53.27
2023-04-19T10:52:13.290Z,52.53
2023-04-19T10:53:14.265Z,52.33
2023-04-19T10:54:13.174Z,52.22
2023-04-19T10:55:13.151Z,52.81
2023-04-19T10:56:13.102Z,53.09
2023-04-19T10:57:13.120Z,52.15
2023-04-19T10:58:13.059Z,51.77
2023-04-19T10:59:13.040Z,51.48
2023-04-19T11:00:13.034Z,52.53
2023-04-19T11:01:12.967Z,52.40
2023-04-19T11:02:13.031Z,52.40
2023-04-19T11:03:12.978Z,52.20
2023-04-19T11:04:12.992Z,52.30
2023-04-19T11:05:12.806Z,52.83
2023-04-19T11:06:12.778Z,53.55
2023-04-19T11:07:12.744Z,53.14
2023-04-19T11:08:12.757Z,53.34
2023-04-19T11:09:12.684Z,53.14
2023-04-19T11:10:12.956Z,53.34
2023-04-19T11:11:12.611Z,53.11
2023-04-19T11:12:12.572Z,54.03
2023-04-19T11:13:12.599Z,52.22
2023-04-19T11:14:12.526Z,53.14
2023-04-19T11:15:12.493Z,53.47
2023-04-19T11:16:12.471Z,53.88
2023-04-19T11:17:12.426Z,53.16
2023-04-19T11:18:13.250Z,53.37
2023-04-19T11:19:12.416Z,53.47
2023-04-19T11:20:12.504Z,53.34
2023-04-19T11:21:12.290Z,52.71
2023-04-19T11:22:12.260Z,52.71
2023-04-19T11:23:12.228Z,52.30
2023-04-19T11:24:12.199Z,52.48
2023-04-19T11:25:12.309Z,52.35
2023-04-19T11:26:12.140Z,51.75
2023-04-19T11:27:12.196Z,52.15
2023-04-19T11:28:12.077Z,52.28
2023-04-19T11:29:12.054Z,52.30
2023-04-19T11:30:12.177Z,52.50
2023-04-19T11:31:12.131Z,53.32
2023-04-19T11:32:11.936Z,52.50
2023-04-19T11:33:11.910Z,52.63
2023-04-19T11:34:11.880Z,52.86
2023-04-19T11:35:11.852Z,53.34
2023-04-19T11:36:11.898Z,54.03
2023-04-19T11:37:11.804Z,54.00
2023-04-19T11:38:11.764Z,53.39
2023-04-19T11:39:11.724Z,53.39
2023-04-19T11:40:11.688Z,52.28
2023-04-19T11:41:11.649Z,53.50
2023-04-19T11:42:11.678Z,53.63
2023-04-19T11:43:11.658Z,52.30
2023-04-19T11:44:11.600Z,53.29
2023-04-19T11:45:25.946Z,53.19
2023-04-19T11:46:11.587Z,53.50
2023-04-19T11:47:11.489Z,52.15
2023-04-19T11:48:11.566Z,52.15
2023-04-19T11:49:11.472Z,51.75
2023-04-19T11:50:11.420Z,51.72
2023-04-19T11:51:11.394Z,52.43
2023-04-19T11:52:11.381Z,51.34
2023-04-19T11:53:11.290Z,52.15
2023-04-19T11:54:11.336Z,52.05
2023-04-19T11:55:11.269Z,51.84
2023-04-19T11:56:11.318Z,52.40
2023-04-19T11:57:11.208Z,53.55
2023-04-19T11:58:11.171Z,53.85
2023-04-19T11:59:11.193Z,54.16
2023-04-19T12:00:11.113Z,54.05
2023-04-19T12:01:11.032Z,54.24
2023-04-19T12:02:11.053Z,53.72
2023-04-19T12:03:11.191Z,53.52
2023-04-19T12:04:11.059Z,52.78
2023-04-19T12:05:11.260Z,53.57
2023-04-19T12:06:10.966Z,52.86
2023-04-19T12:07:10.868Z,52.05
2023-04-19T12:08:10.805Z,52.05
2023-04-19T12:09:10.836Z,51.44
2023-04-19T12:10:10.768Z,51.84
2023-04-19T12:11:10.706Z,51.64
2023-04-19T12:12:10.670Z,50.83
2023-04-19T12:13:10.656Z,51.67
2023-04-19T12:14:10.670Z,51.95
2023-04-19T12:15:10.598Z,52.15
2023-04-19T12:16:10.580Z,51.44
2023-04-19T12:17:10.541Z,52.15
2023-04-19T12:18:10.533Z,51.44
2023-04-19T12:19:10.499Z,51.31
2023-04-19T12:20:10.509Z,51.82
2023-04-19T12:21:10.396Z,50.81
2023-04-19T12:22:10.374Z,50.81
2023-04-19T12:23:10.336Z,51.11
2023-04-19T12:24:10.326Z,50.12
2023-04-19T12:25:10.278Z,50.73
2023-04-19T12:26:10.290Z,50.45
2023-04-19T12:27:10.808Z,49.73
2023-04-19T12:28:10.189Z,50.04
2023-04-19T12:29:10.151Z,50.24
2023-04-19T12:30:10.113Z,50.12
2023-04-19T12:31:10.114Z,49.81
2023-04-19T12:32:10.164Z,50.22
2023-04-19T12:33:10.265Z,50.52
2023-04-19T12:34:10.002Z,49.69
2023-04-19T12:35:09.962Z,50.68
2023-04-19T12:36:09.940Z,50.88
2023-04-19T12:37:09.911Z,50.04
2023-04-19T12:38:09.914Z,51.16
2023-04-19T12:39:09.843Z,50.68
2023-04-19T12:40:09.814Z,50.98
2023-04-19T12:41:09.779Z,50.58
2023-04-19T12:42:09.744Z,50.60
2023-04-19T12:43:09.725Z,50.81
2023-04-19T12:44:09.743Z,50.09
2023-04-19T12:45:09.660Z,50.68
2023-04-19T12:46:09.684Z,52.00
2023-04-19T12:47:09.593Z,50.12
2023-04-19T12:48:09.622Z,50.56
2023-04-19T12:49:09.546Z,50.04
2023-04-19T12:50:09.655Z,50.88
2023-04-19T12:51:09.482Z,51.11
2023-04-19T12:52:09.429Z,52.10
2023-04-19T12:53:09.416Z,50.88
2023-04-19T12:54:09.369Z,51.42
2023-04-19T12:55:09.346Z,51.79
2023-04-19T12:56:09.381Z,52.18
2023-04-19T12:57:09.286Z,51.98
2023-04-19T12:58:09.258Z,51.46
2023-04-19T12:59:09.227Z,52.10
2023-04-19T13:00:09.183Z,53.22
2023-04-19T13:01:09.208Z,52.33
2023-04-19T13:02:09.260Z,52.12
2023-04-19T13:03:09.224Z,53.47